createdAt,value
2019-03-10T00:02:26.500Z,36.10
2019-03-10T00:04:58.989Z,36.60
2019-03-10T00:07:34.036Z,29.53
2019-03-10T00:10:08.700Z,32.57
2019-03-10T00:12:41.926Z,35.23
2019-03-10T00:15:16.378Z,42.70
2019-03-10T00:17:49.091Z,30.23
2019-03-10T00:20:22.079Z,36.90
2019-03-10T00:22:59.060Z,26.63
2019-03-10T00:25:31.814Z,29.87
2019-03-10T00:28:06.733Z,32.67
2019-03-10T00:30:40.578Z,37.20
2019-03-10T00:33:13.332Z,33.77
2019-03-10T00:35:46.003Z,32.23
2019-03-10T00:38:19.141Z,35.60
2019-03-10T00:41:34.921Z,31.57
2019-03-10T00:45:02.777Z,39.00
2019-03-10T00:48:43.166Z,36.07
2019-03-10T00:52:08.456Z,41.30
2019-03-10T00:54:52.890Z,35.97
2019-03-10T00:57:25.636Z,39.60
2019-03-10T01:00:00.547Z,33.83
2019-03-10T01:02:35.272Z,38.43
2019-03-10T01:05:08.197Z,37.75
2019-03-10T01:07:41.424Z,37.63
2019-03-10T01:10:15.354Z,38.30
2019-03-10T01:12:48.335Z,36.90
2019-03-10T01:15:22.815Z,32.30
2019-03-10T01:17:56.605Z,28.80
2019-03-10T01:20:30.222Z,31.77
2019-03-10T01:23:04.544Z,34.73
2019-03-10T01:25:37.286Z,33.50
2019-03-10T01:28:10.094Z,30.10
2019-03-10T01:31:08.057Z,32.50
2019-03-10T01:34:11.604Z,32.73
2019-03-10T01:36:44.299Z,34.63
2019-03-10T01:39:18.589Z,29.97
2019-03-10T01:41:51.457Z,29.77
2019-03-10T01:44:24.949Z,28.30
2019-03-10T01:46:57.897Z,32.78
2019-03-10T01:49:31.198Z,30.47
2019-03-10T01:52:04.402Z,35.67
2019-03-10T01:54:37.278Z,33.50
2019-03-10T01:57:10.053Z,33.03
2019-03-10T01:59:43.883Z,38.10
2019-03-10T02:02:25.186Z,33.73
2019-03-10T02:04:58.907Z,34.87
2019-03-10T02:07:33.490Z,31.97
2019-03-10T02:10:08.066Z,29.90
2019-03-10T02:12:41.386Z,30.83
2019-03-10T02:15:16.838Z,33.00
2019-03-10T02:17:50.682Z,22.90
2019-03-10T02:20:23.420Z,25.80
2019-03-10T02:22:57.920Z,33.90
2019-03-10T02:25:30.472Z,29.90
2019-03-10T02:28:03.701Z,35.03
2019-03-10T02:30:36.515Z,38.73
2019-03-10T02:33:09.087Z,34.92
2019-03-10T02:35:42.064Z,35.67
2019-03-10T02:38:14.548Z,30.33
2019-03-10T02:40:47.184Z,32.87
2019-03-10T02:43:20.227Z,33.53
2019-03-10T02:45:52.806Z,33.53
2019-03-10T02:48:25.398Z,28.03
2019-03-10T02:50:58.334Z,31.10
2019-03-10T02:53:31.335Z,26.13
2019-03-10T02:56:03.863Z,29.23
2019-03-10T02:58:36.663Z,26.73
2019-03-10T03:01:09.416Z,32.03
2019-03-10T03:03:42.223Z,31.90
2019-03-10T03:06:15.917Z,31.37
2019-03-10T03:08:48.369Z,35.87
2019-03-10T03:11:20.956Z,30.83
2019-03-10T03:13:55.026Z,32.80
2019-03-10T03:16:29.413Z,28.00
2019-03-10T03:19:01.815Z,29.73
2019-03-10T03:21:42.914Z,34.97
2019-03-10T03:24:17.120Z,24.73
2019-03-10T03:26:50.354Z,34.37
2019-03-10T03:29:23.114Z,34.67
2019-03-10T03:31:55.736Z,40.90
2019-03-10T03:34:28.225Z,36.87
2019-03-10T03:37:01.546Z,41.90
2019-03-10T03:39:43.136Z,33.93
2019-03-10T03:42:15.770Z,40.43
2019-03-10T03:44:49.391Z,32.10
2019-03-10T03:47:21.914Z,42.83
2019-03-10T03:49:56.112Z,34.87
2019-03-10T03:52:28.737Z,32.13
2019-03-10T03:55:01.305Z,34.17
2019-03-10T03:57:35.541Z,38.47
2019-03-10T04:00:08.220Z,30.13
2019-03-10T04:02:44.805Z,30.63
2019-03-10T04:05:17.547Z,34.50
2019-03-10T04:07:50.061Z,30.27
2019-03-10T04:10:22.405Z,31.30
2019-03-10T04:12:55.215Z,35.07
2019-03-10T04:15:27.763Z,32.90
2019-03-10T04:18:00.628Z,33.60
2019-03-10T04:20:35.035Z,30.27
2019-03-10T04:23:07.562Z,28.77
2019-03-10T04:25:40.071Z,32.90
2019-03-10T04:28:12.960Z,34.83
2019-03-10T04:30:46.835Z,25.93
2019-03-10T04:33:19.780Z,40.83
2019-03-10T04:35:52.878Z,30.33
2019-03-10T04:38:25.454Z,30.77
2019-03-10T04:40:57.849Z,36.45
2019-03-10T04:43:30.647Z,28.13
2019-03-10T04:46:03.214Z,29.03
2019-03-10T04:48:35.802Z,32.20
2019-03-10T04:51:08.541Z,26.93
2019-03-10T04:53:41.263Z,27.63
2019-03-10T04:56:20.249Z,36.93
2019-03-10T04:58:53.119Z,32.00
2019-03-10T05:01:25.691Z,31.07
2019-03-10T05:03:58.784Z,32.43
2019-03-10T05:06:31.914Z,30.20
2019-03-10T05:09:08.077Z,26.53
2019-03-10T05:11:40.937Z,27.90
2019-03-10T05:14:13.993Z,29.07
2019-03-10T05:16:47.677Z,26.27
2019-03-10T05:19:20.358Z,22.45
2019-03-10T05:21:53.434Z,26.00
2019-03-10T05:24:26.113Z,22.52
2019-03-10T05:26:58.582Z,20.30
2019-03-10T05:29:31.699Z,15.53
2019-03-10T05:32:04.881Z,17.70
2019-03-10T05:34:38.198Z,20.60
2019-03-10T05:37:11.304Z,22.83
2019-03-10T05:39:43.837Z,19.45
2019-03-10T05:42:16.973Z,22.15
2019-03-10T05:44:49.908Z,17.33
2019-03-10T05:47:22.658Z,17.93
2019-03-10T05:49:55.254Z,19.77
2019-03-10T05:52:29.666Z,24.27
2019-03-10T05:55:02.844Z,28.20
2019-03-10T05:57:35.295Z,19.53
2019-03-10T06:00:07.763Z,20.13
2019-03-10T06:02:40.282Z,16.70
2019-03-10T06:05:13.491Z,19.13
2019-03-10T06:07:46.222Z,17.77
2019-03-10T06:10:19.146Z,18.33
2019-03-10T06:12:51.871Z,19.23
2019-03-10T06:15:24.702Z,19.07
2019-03-10T06:17:57.284Z,15.07
2019-03-10T06:20:30.269Z,16.70
2019-03-10T06:23:03.135Z,14.80
2019-03-10T06:25:36.202Z,16.07
2019-03-10T06:28:08.874Z,12.53
2019-03-10T06:30:42.058Z,17.50
2019-03-10T06:33:14.528Z,11.37
2019-03-10T06:35:47.089Z,11.67
2019-03-10T06:38:20.146Z,12.00
2019-03-10T06:40:52.606Z,12.17
2019-03-10T06:43:25.240Z,11.73
2019-03-10T06:45:58.507Z,9.80
2019-03-10T06:48:31.098Z,8.67
2019-03-10T06:51:04.062Z,12.30
2019-03-10T06:53:38.399Z,11.23
2019-03-10T06:56:11.851Z,11.73
2019-03-10T06:58:45.114Z,11.57
2019-03-10T07:01:19.335Z,12.07
2019-03-10T07:03:51.827Z,11.87
2019-03-10T07:06:25.736Z,9.93
2019-03-10T07:08:59.981Z,12.53
2019-03-10T07:11:32.547Z,10.37
2019-03-10T07:14:05.183Z,11.98
2019-03-10T07:16:37.766Z,10.93
2019-03-10T07:19:10.572Z,8.80
2019-03-10T07:21:43.130Z,8.30
2019-03-10T07:24:17.077Z,8.20
2019-03-10T07:26:49.958Z,9.10
2019-03-10T07:29:26.808Z,8.77
2019-03-10T07:32:22.310Z,8.97
2019-03-10T07:35:31.113Z,8.80
2019-03-10T07:38:28.729Z,7.23
2019-03-10T07:41:06.769Z,8.67
2019-03-10T07:43:47.371Z,10.07
2019-03-10T07:46:26.986Z,9.37
2019-03-10T07:49:09.550Z,10.93
2019-03-10T07:51:50.430Z,6.93
2019-03-10T07:54:32.201Z,12.17
2019-03-10T07:57:24.531Z,5.67
2019-03-10T08:00:15.710Z,9.57
2019-03-10T08:03:09.862Z,9.40
2019-03-10T08:06:14.007Z,9.32
2019-03-10T08:08:52.527Z,8.75
2019-03-10T08:11:30.934Z,9.57
2019-03-10T08:14:16.677Z,8.33
2019-03-10T08:17:02.176Z,6.83
2019-03-10T08:19:47.016Z,7.97
2019-03-10T08:22:34.936Z,8.10
2019-03-10T08:25:21.267Z,10.17
2019-03-10T08:28:09.594Z,11.18
2019-03-10T08:30:48.628Z,8.07
2019-03-10T08:33:43.009Z,8.98
2019-03-10T08:36:24.470Z,8.30
2019-03-10T08:39:25.467Z,5.00
2019-03-10T08:42:25.678Z,9.25
2019-03-10T08:45:05.759Z,7.90
2019-03-10T08:48:00.210Z,8.20
2019-03-10T08:50:55.345Z,8.50
2019-03-10T08:53:41.452Z,9.00
2019-03-10T08:56:29.858Z,9.27
2019-03-10T08:59:29.140Z,7.47
2019-03-10T09:02:42.837Z,10.43
2019-03-10T09:05:25.118Z,8.33
2019-03-10T09:08:04.564Z,9.23
2019-03-10T09:10:52.728Z,9.60
2019-03-10T09:13:36.532Z,12.27
2019-03-10T09:16:21.473Z,11.67
2019-03-10T09:19:06.943Z,12.60
2019-03-10T09:21:53.948Z,12.73
2019-03-10T09:24:48.794Z,10.30
2019-03-10T09:27:43.288Z,9.30
2019-03-10T09:30:28.697Z,10.48
2019-03-10T09:33:18.841Z,11.48
2019-03-10T09:36:16.726Z,8.53
2019-03-10T09:39:21.319Z,10.45
2019-03-10T09:42:14.914Z,9.30
2019-03-10T09:44:56.402Z,9.20
2019-03-10T09:47:51.716Z,10.18
2019-03-10T09:50:55.018Z,9.33
2019-03-10T09:53:49.029Z,9.80
2019-03-10T09:56:39.932Z,8.97
2019-03-10T09:59:20.676Z,8.68
2019-03-10T10:02:06.583Z,5.87
2019-03-10T10:04:50.161Z,7.97
2019-03-10T10:07:32.746Z,7.30
2019-03-10T10:10:15.845Z,5.87
2019-03-10T10:13:00.332Z,9.13
2019-03-10T10:15:51.632Z,5.63
2019-03-10T10:18:43.468Z,5.17
2019-03-10T10:21:22.037Z,6.30
2019-03-10T10:24:18.906Z,6.43
2019-03-10T10:27:13.420Z,5.17
2019-03-10T10:29:58.696Z,7.53
2019-03-10T10:33:05.795Z,7.37
2019-03-10T10:36:11.409Z,9.48
2019-03-10T10:39:13.327Z,6.27
2019-03-10T10:41:54.229Z,6.77
2019-03-10T10:44:48.817Z,7.47
2019-03-10T10:47:50.916Z,6.93
2019-03-10T10:50:57.713Z,7.80
2019-03-10T10:53:56.025Z,8.23
2019-03-10T10:56:58.331Z,9.63
2019-03-10T10:59:41.651Z,9.17
2019-03-10T11:02:23.026Z,12.87
2019-03-10T11:05:15.948Z,12.07
2019-03-10T11:07:58.489Z,9.80
2019-03-10T11:10:56.362Z,14.57
2019-03-10T11:13:56.961Z,11.93
2019-03-10T11:16:38.808Z,11.57
2019-03-10T11:19:19.807Z,9.07
2019-03-10T11:22:10.888Z,9.77
2019-03-10T11:25:06.261Z,10.68
2019-03-10T11:28:09.109Z,10.43
2019-03-10T11:31:02.356Z,8.83
2019-03-10T11:33:53.112Z,10.67
2019-03-10T11:36:47.277Z,9.07
2019-03-10T11:39:30.838Z,9.83
2019-03-10T11:42:11.144Z,18.37
2019-03-10T11:45:10.059Z,11.47
2019-03-10T11:48:08.266Z,12.57
2019-03-10T11:50:58.839Z,12.97
2019-03-10T11:53:58.580Z,14.40
2019-03-10T11:56:57.834Z,13.40
2019-03-10T12:00:06.303Z,14.35
2019-03-10T12:02:49.103Z,13.27
2019-03-10T12:05:31.874Z,9.40
2019-03-10T12:08:12.398Z,13.60
2019-03-10T12:10:46.819Z,17.27
2019-03-10T12:13:25.752Z,13.53
2019-03-10T12:16:01.456Z,14.97
2019-03-10T12:18:37.747Z,14.60
2019-03-10T12:21:16.053Z,14.83
2019-03-10T12:23:55.295Z,15.20
2019-03-10T12:26:34.928Z,10.87
2019-03-10T12:29:16.589Z,12.23
2019-03-10T12:31:57.394Z,12.60
2019-03-10T12:34:37.003Z,10.67
2019-03-10T12:37:20.128Z,14.10
2019-03-10T12:39:58.548Z,17.67
2019-03-10T12:42:35.431Z,12.90
2019-03-10T12:45:17.508Z,17.43
2019-03-10T12:48:05.596Z,12.97
2019-03-10T12:51:04.590Z,17.43
2019-03-10T12:53:53.948Z,16.50
2019-03-10T12:56:45.348Z,15.90
2019-03-10T12:59:28.745Z,18.27
2019-03-10T13:02:15.106Z,16.60
2019-03-10T13:04:58.732Z,21.63
2019-03-10T13:07:45.781Z,21.53
2019-03-10T13:10:32.558Z,16.07
2019-03-10T13:13:06.484Z,26.00
2019-03-10T13:15:49.016Z,22.37
2019-03-10T13:18:22.623Z,16.97
2019-03-10T13:21:08.053Z,16.30
2019-03-10T13:23:47.320Z,16.20
2019-03-10T13:26:30.906Z,16.23
2019-03-10T13:29:04.803Z,13.33
2019-03-10T13:31:46.514Z,16.35
2019-03-10T13:34:30.363Z,13.73
2019-03-10T13:37:15.513Z,13.67
2019-03-10T13:39:59.040Z,11.10
2019-03-10T13:42:37.984Z,9.70
2019-03-10T13:45:18.661Z,8.90
2019-03-10T13:47:53.670Z,7.23
2019-03-10T13:50:33.202Z,4.23
2019-03-10T13:53:11.395Z,6.37
2019-03-10T13:55:51.511Z,3.53
2019-03-10T13:58:28.415Z,5.30
2019-03-10T14:01:06.264Z,4.10
2019-03-10T14:03:50.592Z,5.30
2019-03-10T14:06:41.412Z,7.65
2019-03-10T14:09:16.553Z,7.70
2019-03-10T14:11:50.819Z,6.67
2019-03-10T14:14:27.328Z,3.97
2019-03-10T14:17:00.371Z,6.93
2019-03-10T14:19:33.459Z,6.47
2019-03-10T14:22:13.288Z,5.03
2019-03-10T14:24:46.308Z,3.47
2019-03-10T14:27:21.934Z,3.67
2019-03-10T14:29:56.600Z,8.03
2019-03-10T14:32:35.366Z,7.10
2019-03-10T14:35:22.669Z,6.50
2019-03-10T14:38:15.951Z,4.00
2019-03-10T14:40:56.139Z,3.60
2019-03-10T14:43:29.385Z,4.43
2019-03-10T14:46:05.510Z,7.53
2019-03-10T14:48:51.264Z,7.10
2019-03-10T14:51:42.023Z,7.17
2019-03-10T14:54:18.810Z,6.70
2019-03-10T14:56:55.489Z,7.37
2019-03-10T14:59:32.119Z,7.17
2019-03-10T15:02:07.335Z,6.13
2019-03-10T15:04:44.153Z,4.83
2019-03-10T15:07:19.381Z,3.00
2019-03-10T15:09:57.839Z,6.10
2019-03-10T15:12:31.851Z,2.60
2019-03-10T15:15:22.439Z,5.13
2019-03-10T15:17:59.516Z,4.63
2019-03-10T15:20:44.904Z,3.87
2019-03-10T15:23:33.531Z,6.20
2019-03-10T15:26:12.512Z,3.40
2019-03-10T15:28:54.311Z,6.83
2019-03-10T15:31:32.402Z,5.00
2019-03-10T15:34:11.685Z,2.87
2019-03-10T15:36:57.511Z,2.57
2019-03-10T15:39:38.971Z,3.23
2019-03-10T15:42:13.684Z,5.57
2019-03-10T15:45:33.573Z,3.53
2019-03-10T15:48:07.637Z,5.53
2019-03-10T15:50:41.195Z,4.30
2019-03-10T15:53:21.190Z,4.20
2019-03-10T15:55:56.764Z,6.03
2019-03-10T15:58:31.927Z,5.77
2019-03-10T16:01:07.150Z,2.93
2019-03-10T16:03:45.241Z,3.13
2019-03-10T16:06:21.136Z,2.70
2019-03-10T16:08:55.888Z,4.40
2019-03-10T16:11:29.081Z,3.37
2019-03-10T16:14:04.338Z,3.27
2019-03-10T16:16:41.637Z,2.13
2019-03-10T16:19:14.663Z,3.57
2019-03-10T16:21:48.479Z,2.20
2019-03-10T16:24:21.648Z,3.53
2019-03-10T16:26:54.351Z,2.00
2019-03-10T16:29:32.713Z,3.20
2019-03-10T16:32:07.903Z,1.13
2019-03-10T16:34:43.169Z,1.07
2019-03-10T16:37:22.035Z,3.30
2019-03-10T16:39:57.489Z,0.50
2019-03-10T16:42:40.021Z,0.77
2019-03-10T16:45:26.396Z,0.90
2019-03-10T16:48:08.168Z,1.37
2019-03-10T16:50:46.385Z,0.30
2019-03-10T16:53:27.505Z,0.30
2019-03-10T16:56:03.235Z,0.40
2019-03-10T16:58:38.366Z,1.27
2019-03-10T17:01:15.034Z,0.57
2019-03-10T17:03:49.836Z,1.70
2019-03-10T17:06:26.046Z,1.07
2019-03-10T17:08:59.673Z,1.30
2019-03-10T17:11:39.259Z,2.37
2019-03-10T17:14:17.463Z,1.67
2019-03-10T17:16:54.216Z,1.87
2019-03-10T17:19:29.058Z,1.40
2019-03-10T17:22:34.930Z,1.30
2019-03-10T17:25:16.518Z,1.77
2019-03-10T17:27:52.621Z,1.10
2019-03-10T17:30:30.423Z,1.50
2019-03-10T17:33:06.503Z,1.57
2019-03-10T17:35:49.687Z,1.60
2019-03-10T17:38:24.458Z,1.40
2019-03-10T17:40:59.937Z,1.62
2019-03-10T17:43:36.541Z,1.50
2019-03-10T17:46:11.191Z,1.10
2019-03-10T17:48:46.559Z,2.63
2019-03-10T17:51:23.261Z,1.33
2019-03-10T17:53:57.165Z,1.77
2019-03-10T17:56:37.085Z,2.20
2019-03-10T17:59:11.864Z,2.40
2019-03-10T18:01:50.158Z,2.03
2019-03-10T18:04:24.728Z,3.20
2019-03-10T18:07:30.277Z,3.10
2019-03-10T18:10:35.938Z,1.80
2019-03-10T18:13:32.153Z,3.60
2019-03-10T18:16:18.400Z,4.87
2019-03-10T18:18:59.372Z,4.70
2019-03-10T18:21:41.425Z,4.47
2019-03-10T18:24:19.975Z,2.97
2019-03-10T18:26:56.811Z,3.17
2019-03-10T18:29:33.995Z,4.60
2019-03-10T18:32:13.209Z,3.00
2019-03-10T18:34:49.047Z,2.60
2019-03-10T18:37:23.701Z,3.03
2019-03-10T18:39:57.967Z,2.27
2019-03-10T18:42:31.799Z,2.57
2019-03-10T18:45:22.528Z,3.87
2019-03-10T18:47:57.805Z,3.80
2019-03-10T18:50:32.149Z,2.83
2019-03-10T18:53:06.669Z,2.87
2019-03-10T18:55:40.193Z,3.30
2019-03-10T18:58:14.348Z,3.87
2019-03-10T19:00:47.875Z,4.45
2019-03-10T19:03:26.536Z,3.97
2019-03-10T19:06:00.121Z,2.87
2019-03-10T19:08:35.924Z,3.97
2019-03-10T19:11:10.645Z,2.73
2019-03-10T19:13:48.777Z,2.43
2019-03-10T19:16:34.938Z,3.43
2019-03-10T19:19:17.701Z,2.40
2019-03-10T19:21:55.448Z,4.75
2019-03-10T19:24:30.308Z,3.90
2019-03-10T19:27:06.351Z,2.93
2019-03-10T19:29:40.170Z,3.23
2019-03-10T19:32:14.221Z,3.00
2019-03-10T19:34:52.664Z,3.20
2019-03-10T19:37:30.410Z,2.93
2019-03-10T19:43:28.759Z,5.15
2019-03-10T19:46:02.275Z,3.60
2019-03-10T19:48:36.213Z,5.50
2019-03-10T19:51:10.066Z,4.37
2019-03-10T19:53:46.176Z,3.20
2019-03-10T19:56:24.015Z,3.03
2019-03-10T20:01:57.584Z,1.80
2019-03-10T20:04:32.205Z,2.50
2019-03-10T20:07:05.810Z,2.57
2019-03-10T20:09:45.509Z,2.33
2019-03-10T20:12:19.030Z,2.63
2019-03-10T20:14:51.815Z,4.03
2019-03-10T20:17:24.851Z,3.47
2019-03-10T20:20:10.024Z,3.47
2019-03-10T20:22:46.329Z,2.07
2019-03-10T20:25:20.144Z,3.28
2019-03-10T20:27:53.703Z,2.67
2019-03-10T20:30:29.389Z,4.17
2019-03-10T20:33:04.781Z,4.67
2019-03-10T20:35:38.208Z,2.85
2019-03-10T20:38:12.343Z,3.33
2019-03-10T20:40:47.049Z,3.42
2019-03-10T20:43:22.469Z,3.53
2019-03-10T20:45:57.134Z,5.27
2019-03-10T20:48:33.316Z,3.00
2019-03-10T20:51:08.734Z,6.27
2019-03-10T20:53:42.956Z,3.93
2019-03-10T20:56:16.938Z,3.07
2019-03-10T20:58:50.469Z,4.83
2019-03-10T21:01:32.038Z,5.87
2019-03-10T21:04:08.261Z,5.43
2019-03-10T21:06:42.325Z,5.17
2019-03-10T21:09:19.626Z,5.60
2019-03-10T21:11:54.196Z,4.47
2019-03-10T21:14:29.473Z,6.77
2019-03-10T21:17:02.774Z,4.53
2019-03-10T21:19:35.948Z,5.80
2019-03-10T21:22:10.594Z,5.77
2019-03-10T21:24:46.374Z,8.17
2019-03-10T21:27:22.290Z,9.23
2019-03-10T21:29:54.908Z,4.33
2019-03-10T21:32:32.293Z,7.43
2019-03-10T21:35:16.861Z,5.23
2019-03-10T21:37:52.129Z,7.70
2019-03-10T21:40:26.255Z,5.87
2019-03-10T21:43:02.984Z,6.30
2019-03-10T21:45:36.701Z,8.60
2019-03-10T21:48:10.621Z,6.43
2019-03-10T21:50:45.260Z,9.17
2019-03-10T21:53:18.771Z,6.87
2019-03-10T21:55:56.463Z,9.07
2019-03-10T21:58:29.172Z,5.97
2019-03-10T22:01:03.099Z,6.20
2019-03-10T22:03:38.728Z,8.00
2019-03-10T22:06:12.419Z,8.10
2019-03-10T22:08:45.149Z,5.62
2019-03-10T22:11:20.922Z,8.50
2019-03-10T22:13:55.976Z,9.47
2019-03-10T22:16:29.808Z,12.57
2019-03-10T22:19:03.521Z,9.97
2019-03-10T22:21:37.230Z,9.33
2019-03-10T22:24:11.662Z,6.70
2019-03-10T22:26:45.038Z,10.77
2019-03-10T22:29:18.546Z,7.93
2019-03-10T22:31:54.902Z,7.63
2019-03-10T22:34:28.722Z,9.33
2019-03-10T22:37:01.575Z,9.13
2019-03-10T22:39:35.032Z,7.00
2019-03-10T22:42:09.340Z,5.37
2019-03-10T22:44:42.496Z,10.40
2019-03-10T22:47:15.035Z,7.93
2019-03-10T22:49:47.729Z,6.57
2019-03-10T22:52:21.650Z,7.67
2019-03-10T22:54:56.020Z,10.00
2019-03-10T22:57:29.504Z,11.83
2019-03-10T23:00:08.905Z,8.63
2019-03-10T23:02:41.542Z,6.73
2019-03-10T23:05:14.259Z,10.40
2019-03-10T23:07:50.154Z,9.93
2019-03-10T23:10:27.798Z,9.93
2019-03-10T23:13:00.783Z,11.37
2019-03-10T23:15:41.431Z,14.90
2019-03-10T23:18:14.037Z,9.70
2019-03-10T23:20:55.051Z,8.13
2019-03-10T23:23:28.997Z,8.47
2019-03-10T23:26:02.423Z,6.20
2019-03-10T23:28:35.634Z,7.57
2019-03-10T23:31:09.198Z,5.20
2019-03-10T23:33:41.683Z,7.27
2019-03-10T23:36:16.034Z,4.40
2019-03-10T23:38:48.495Z,8.50
2019-03-10T23:41:24.236Z,9.30
2019-03-10T23:43:57.556Z,7.10
2019-03-10T23:46:30.944Z,7.55
2019-03-10T23:49:03.606Z,10.07
2019-03-10T23:51:36.828Z,10.13
2019-03-10T23:54:09.331Z,6.53
2019-03-10T23:56:41.964Z,6.77
2019-03-10T23:59:15.901Z,7.90
